createdAt,value
2023-04-24T00:01:02.134Z,3.58
2023-04-24T00:06:03.962Z,3.47
2023-04-24T00:11:05.675Z,3.70
2023-04-24T00:16:07.287Z,3.63
2023-04-24T00:21:08.991Z,3.53
2023-04-24T00:26:10.566Z,3.45
2023-04-24T00:31:12.133Z,3.42
2023-04-24T00:36:13.753Z,3.63
2023-04-24T00:41:15.442Z,3.50
2023-04-24T00:46:17.983Z,3.13
2023-04-24T00:51:20.567Z,3.50
2023-04-24T00:56:22.264Z,3.35
2023-04-24T01:01:23.913Z,3.25
2023-04-24T01:06:29.251Z,3.25
2023-04-24T01:11:31.080Z,3.60
2023-04-24T01:16:32.654Z,3.50
2023-04-24T01:21:38.165Z,3.05
2023-04-24T01:26:39.802Z,3.47
2023-04-24T01:31:41.662Z,3.33
2023-04-24T01:36:44.208Z,3.53
2023-04-24T01:41:45.776Z,3.72
2023-04-24T01:46:47.616Z,3.72
2023-04-24T01:51:49.258Z,3.72
2023-04-24T01:56:51.023Z,3.50
2023-04-24T02:01:52.773Z,3.53
2023-04-24T02:06:54.571Z,3.65
2023-04-24T02:11:57.368Z,3.30
2023-04-24T02:16:59.520Z,3.72
2023-04-24T02:22:01.220Z,3.58
2023-04-24T02:27:03.831Z,4.10
2023-04-24T02:32:05.547Z,4.00
2023-04-24T02:37:08.540Z,3.72
2023-04-24T02:42:11.964Z,3.53
2023-04-24T02:47:13.495Z,4.25
2023-04-24T02:52:15.736Z,3.50
2023-04-24T02:57:17.408Z,3.97
2023-04-24T03:02:19.197Z,4.32
2023-04-24T03:07:21.710Z,3.80
2023-04-24T03:12:24.835Z,3.85
2023-04-24T03:17:26.502Z,3.92
2023-04-24T03:22:28.290Z,3.60
2023-04-24T03:27:30.084Z,3.85
2023-04-24T03:32:35.977Z,4.10
2023-04-24T03:37:38.334Z,3.83
2023-04-24T03:43:03.401Z,3.78
2023-04-24T03:48:05.290Z,3.97
2023-04-24T03:53:07.663Z,4.07
2023-04-24T03:58:14.501Z,4.05
2023-04-24T04:03:17.329Z,3.70
2023-04-24T04:08:19.115Z,3.95
2023-04-24T04:13:20.873Z,3.50
2023-04-24T04:18:22.528Z,2.88
2023-04-24T04:23:24.696Z,2.40
2023-04-24T04:28:46.579Z,2.50
2023-04-24T04:33:48.356Z,2.45
2023-04-24T04:38:50.020Z,2.63
2023-04-24T04:44:09.832Z,2.53
2023-04-24T04:49:12.542Z,2.05
2023-04-24T04:54:14.526Z,1.80
2023-04-24T04:59:16.276Z,2.20
2023-04-24T05:04:18.271Z,1.70
2023-04-24T05:09:20.206Z,1.38
2023-04-24T05:14:27.663Z,1.10
2023-04-24T05:19:29.309Z,1.15
2023-04-24T05:24:30.993Z,1.45
2023-04-24T05:30:05.751Z,1.40
2023-04-24T05:35:08.674Z,1.40
2023-04-24T05:40:12.080Z,1.15
2023-04-24T05:45:17.528Z,1.40
2023-04-24T05:50:19.122Z,1.40
2023-04-24T05:55:22.283Z,1.50
2023-04-24T06:00:25.471Z,1.83
2023-04-24T06:05:35.948Z,1.63
2023-04-24T06:10:38.390Z,1.33
2023-04-24T06:15:42.629Z,1.30
2023-04-24T06:21:00.714Z,1.30
2023-04-24T06:26:02.373Z,1.30
2023-04-24T06:31:04.033Z,1.30
2023-04-24T06:36:05.784Z,1.13
2023-04-24T06:41:07.424Z,2.05
2023-04-24T06:46:09.070Z,1.10
2023-04-24T06:51:11.027Z,1.13
2023-04-24T06:56:12.674Z,1.10
2023-04-24T07:01:14.371Z,1.05
2023-04-24T07:06:17.540Z,1.17
2023-04-24T07:11:19.322Z,1.60
2023-04-24T07:16:20.973Z,1.05
2023-04-24T07:21:22.691Z,1.30
2023-04-24T07:26:24.258Z,0.98
2023-04-24T07:31:27.134Z,1.10
2023-04-24T07:36:29.005Z,1.20
2023-04-24T07:41:30.805Z,1.70
2023-04-24T07:46:32.718Z,1.13
2023-04-24T07:51:39.090Z,2.30
2023-04-24T07:56:43.913Z,0.90
2023-04-24T08:01:45.488Z,1.00
2023-04-24T08:06:48.543Z,1.15
2023-04-24T08:11:50.491Z,0.93
2023-04-24T08:16:54.750Z,0.80
2023-04-24T08:21:56.428Z,0.88
2023-04-24T08:26:58.893Z,1.10
2023-04-24T08:32:00.754Z,1.00
2023-04-24T08:37:03.530Z,0.90
2023-04-24T08:42:06.425Z,1.00
2023-04-24T08:47:08.998Z,1.00
2023-04-24T08:52:11.100Z,0.90
2023-04-24T08:57:12.912Z,0.90
2023-04-24T09:02:15.958Z,0.80
2023-04-24T09:07:19.339Z,0.95
2023-04-24T09:12:21.784Z,0.93
2023-04-24T09:17:23.894Z,0.80
2023-04-24T09:22:25.695Z,0.90
2023-04-24T09:27:29.465Z,0.88
2023-04-24T09:32:32.689Z,1.00
2023-04-24T09:37:47.780Z,1.05
2023-04-24T09:42:54.729Z,0.93
2023-04-24T09:47:56.690Z,0.93
2023-04-24T09:53:11.665Z,1.20
2023-04-24T09:58:13.227Z,0.90
2023-04-24T10:03:15.020Z,1.00
2023-04-24T10:08:16.763Z,0.90
2023-04-24T10:13:18.607Z,1.15
2023-04-24T10:18:22.087Z,1.10
2023-04-24T10:23:26.245Z,0.93
2023-04-24T10:28:29.172Z,0.90
2023-04-24T10:33:31.615Z,0.75
2023-04-24T10:38:33.228Z,0.90
2023-04-24T10:43:34.938Z,0.85
2023-04-24T10:48:37.086Z,1.00
2023-04-24T10:53:38.610Z,0.90
2023-04-24T10:58:50.945Z,0.65
2023-04-24T11:04:00.008Z,1.02
2023-04-24T11:09:13.639Z,0.98
2023-04-24T11:14:16.236Z,0.98
2023-04-24T11:19:17.730Z,1.05
2023-04-24T11:24:25.488Z,1.23
2023-04-24T11:29:47.091Z,0.98
2023-04-24T11:34:49.970Z,0.77
2023-04-24T11:39:53.280Z,0.70
2023-04-24T11:44:59.045Z,0.90
2023-04-24T11:50:02.154Z,0.77
2023-04-24T11:55:04.703Z,0.85
2023-04-24T12:00:07.769Z,1.00
2023-04-24T12:05:22.110Z,0.80
2023-04-24T12:10:26.128Z,1.10
2023-04-24T12:15:27.853Z,1.05
2023-04-24T12:20:31.800Z,0.90
2023-04-24T12:25:34.057Z,1.15
2023-04-24T12:30:39.378Z,1.13
2023-04-24T12:35:41.942Z,0.90
2023-04-24T12:40:44.610Z,0.93
2023-04-24T12:45:46.933Z,1.10
2023-04-24T12:50:48.563Z,1.00
2023-04-24T12:55:53.715Z,1.10
2023-04-24T13:00:55.491Z,1.60
2023-04-24T13:05:57.106Z,1.10
2023-04-24T13:10:58.725Z,1.10
2023-04-24T13:16:00.489Z,1.20
2023-04-24T13:21:02.103Z,1.00
2023-04-24T13:26:03.618Z,1.48
2023-04-24T13:31:05.423Z,1.38
2023-04-24T13:36:07.229Z,1.20
2023-04-24T13:41:08.922Z,1.20
2023-04-24T13:46:10.617Z,1.40
2023-04-24T13:51:12.382Z,1.20
2023-04-24T13:56:15.009Z,1.40
2023-04-24T14:01:16.852Z,1.17
2023-04-24T14:06:19.620Z,1.05
2023-04-24T14:11:21.402Z,0.90
2023-04-24T14:16:23.352Z,1.20
2023-04-24T14:21:24.997Z,1.25
2023-04-24T14:26:26.701Z,1.08
2023-04-24T14:31:28.371Z,1.88
2023-04-24T14:36:29.912Z,1.40
2023-04-24T14:41:32.439Z,1.25
2023-04-24T14:46:34.292Z,1.13
2023-04-24T14:51:36.744Z,1.13
2023-04-24T14:56:40.632Z,1.25
2023-04-24T15:01:42.258Z,1.30
2023-04-24T15:06:43.800Z,1.20
2023-04-24T15:11:45.352Z,0.90
2023-04-24T15:16:46.990Z,1.27
2023-04-24T15:21:48.583Z,0.82
2023-04-24T15:26:50.137Z,1.30
2023-04-24T15:31:51.672Z,2.03
2023-04-24T15:36:53.235Z,1.20
2023-04-24T15:41:54.773Z,1.17
2023-04-24T15:46:56.292Z,1.10
2023-04-24T15:51:57.875Z,1.40
2023-04-24T15:57:00.711Z,1.13
2023-04-24T16:02:03.872Z,1.40
2023-04-24T16:07:05.610Z,1.13
2023-04-24T16:12:07.758Z,0.90
2023-04-24T16:17:09.346Z,1.17
2023-04-24T16:22:10.932Z,1.10
2023-04-24T16:27:12.596Z,1.05
2023-04-24T16:32:14.350Z,1.10
2023-04-24T16:37:16.127Z,1.00
2023-04-24T16:42:17.752Z,0.98
2023-04-24T16:47:19.566Z,1.13
2023-04-24T16:52:21.180Z,1.00
2023-04-24T16:57:23.143Z,1.00
2023-04-24T17:02:24.751Z,1.08
2023-04-24T17:07:26.774Z,1.10
2023-04-24T17:12:28.345Z,1.00
2023-04-24T17:17:29.931Z,1.10
2023-04-24T17:22:31.504Z,1.10
2023-04-24T17:27:33.235Z,1.10
2023-04-24T17:32:34.817Z,1.10
2023-04-24T17:37:36.405Z,0.80
2023-04-24T17:42:41.358Z,1.30
2023-04-24T17:47:43.121Z,0.90
2023-04-24T17:52:44.701Z,0.90
2023-04-24T17:57:46.314Z,1.00
2023-04-24T18:02:49.724Z,0.70
2023-04-24T18:07:51.434Z,1.08
2023-04-24T18:12:53.149Z,1.05
2023-04-24T18:17:54.745Z,0.80
2023-04-24T18:22:56.292Z,0.82
2023-04-24T18:27:57.920Z,0.80
2023-04-24T18:32:59.939Z,0.73
2023-04-24T18:38:01.923Z,0.88
2023-04-24T18:43:03.612Z,0.90
2023-04-24T18:48:05.299Z,1.30
2023-04-24T18:53:09.784Z,0.80
2023-04-24T18:58:11.785Z,0.80
2023-04-24T19:03:13.510Z,0.70
2023-04-24T19:08:15.194Z,0.80
2023-04-24T19:13:16.833Z,0.70
2023-04-24T19:18:18.376Z,0.80
2023-04-24T19:23:19.912Z,0.80
2023-04-24T19:28:21.482Z,0.90
2023-04-24T19:33:23.120Z,0.90
2023-04-24T19:38:24.654Z,1.00
2023-04-24T19:43:26.402Z,1.00
2023-04-24T19:48:31.051Z,0.95
2023-04-24T19:53:33.127Z,1.02
2023-04-24T19:58:34.846Z,1.13
2023-04-24T20:03:36.485Z,1.10
2023-04-24T20:08:39.209Z,0.95
2023-04-24T20:13:41.254Z,1.20
2023-04-24T20:18:42.972Z,1.10
2023-04-24T20:23:44.485Z,1.17
2023-04-24T20:28:46.080Z,1.10
2023-04-24T20:33:47.646Z,1.50
2023-04-24T20:38:49.501Z,1.48
2023-04-24T20:43:51.427Z,1.50
2023-04-24T20:48:53.031Z,1.80
2023-04-24T20:53:54.648Z,1.80
2023-04-24T20:58:57.360Z,1.52
2023-04-24T21:03:59.099Z,1.83
2023-04-24T21:09:00.764Z,1.80
2023-04-24T21:14:02.721Z,1.80
2023-04-24T21:19:04.423Z,2.00
2023-04-24T21:24:06.080Z,1.98
2023-04-24T21:29:07.655Z,1.90
2023-04-24T21:34:09.301Z,1.90
2023-04-24T21:39:10.934Z,1.90
2023-04-24T21:44:12.566Z,1.95
2023-04-24T21:49:14.178Z,2.20
2023-04-24T21:54:16.085Z,2.00
2023-04-24T21:59:17.830Z,2.25
2023-04-24T22:04:19.712Z,2.20
2023-04-24T22:09:21.688Z,2.00
2023-04-24T22:14:23.321Z,2.10
2023-04-24T22:19:26.293Z,2.30
2023-04-24T22:24:28.173Z,2.08
2023-04-24T22:29:30.893Z,2.30
2023-04-24T22:34:32.527Z,2.40
2023-04-24T22:39:34.197Z,2.30
2023-04-24T22:44:35.802Z,2.42
2023-04-24T22:49:37.560Z,2.20
2023-04-24T22:54:39.131Z,2.13
2023-04-24T22:59:40.690Z,2.03
2023-04-24T23:04:42.286Z,2.63
2023-04-24T23:09:43.840Z,2.20
2023-04-24T23:14:45.842Z,2.67
2023-04-24T23:19:47.617Z,2.30
2023-04-24T23:24:49.146Z,2.65
2023-04-24T23:29:50.845Z,2.50
2023-04-24T23:34:52.382Z,2.30
2023-04-24T23:39:54.026Z,2.60
2023-04-24T23:44:55.618Z,2.35
2023-04-24T23:49:57.245Z,2.40
2023-04-24T23:54:58.829Z,2.40
